Time;durP1;ratioP1;P1;durP2;ratioP2;P2;SDS_P1;SDS_P2;PMS_P1;PMS_P2;Temp;Humidity;BMP_temperature;BMP_pressure;BME280_temperature;BME280_humidity;BME280_pressure;Samples;Min_cycle;Max_cycle;Signal;HPM_P1;HPM_P2
2023/08/18 00:00:11;;;;;;;4.88;1.45;;;16.90;99.90;;;;;;5067881;28;20035;-77
2023/08/18 00:02:38;;;;;;;2.70;1.40;;;17.00;99.90;;;;;;5077418;28;20044;-76
2023/08/18 00:05:04;;;;;;;3.03;1.50;;;17.00;99.90;;;;;;5077778;28;20040;-77
2023/08/18 00:07:30;;;;;;;3.50;1.50;;;17.00;99.90;;;;;;5059545;28;20447;-76
2023/08/18 00:09:56;;;;;;;2.95;1.25;;;16.90;99.90;;;;;;5070623;28;20091;-76
2023/08/18 00:12:21;;;;;;;3.08;1.50;;;17.00;99.90;;;;;;5053886;28;20040;-77
2023/08/18 00:14:47;;;;;;;3.53;1.55;;;17.00;99.90;;;;;;5064167;28;20045;-76
2023/08/18 00:17:12;;;;;;;3.47;1.60;;;17.00;99.90;;;;;;5070366;28;20067;-77
2023/08/18 00:19:38;;;;;;;3.15;1.55;;;17.00;99.90;;;;;;5059917;28;20036;-78
2023/08/18 00:22:03;;;;;;;2.13;1.48;;;17.00;99.90;;;;;;5068239;28;20032;-77
2023/08/18 00:24:29;;;;;;;2.15;1.50;;;17.00;99.90;;;;;;5065569;28;20411;-76
2023/08/18 00:26:54;;;;;;;3.55;1.60;;;17.00;99.90;;;;;;5053099;28;20036;-76
2023/08/18 00:29:20;;;;;;;2.28;1.23;;;17.00;99.90;;;;;;5067560;28;20486;-78
2023/08/18 00:31:45;;;;;;;4.30;1.40;;;17.00;99.90;;;;;;5066172;28;20528;-77
2023/08/18 00:34:11;;;;;;;3.75;1.80;;;17.00;99.90;;;;;;5065137;28;20032;-76
2023/08/18 00:36:37;;;;;;;3.60;1.70;;;17.00;99.90;;;;;;5065060;28;20522;-76
2023/08/18 00:39:02;;;;;;;4.32;1.60;;;17.00;99.90;;;;;;5077810;28;20083;-76
2023/08/18 00:41:28;;;;;;;3.85;1.60;;;17.00;99.90;;;;;;5068153;28;20130;-78
2023/08/18 00:43:54;;;;;;;2.90;1.75;;;17.00;99.90;;;;;;5068047;28;20060;-77
2023/08/18 00:46:21;;;;;;;2.40;1.45;;;17.00;99.90;;;;;;5071234;28;20037;-75
2023/08/18 00:48:47;;;;;;;3.28;1.48;;;17.00;99.90;;;;;;5065102;28;20036;-76
2023/08/18 00:51:14;;;;;;;3.80;1.77;;;16.90;99.90;;;;;;5074793;28;20548;-76
2023/08/18 00:53:41;;;;;;;2.50;1.77;;;17.00;99.90;;;;;;5067949;28;20074;-76
2023/08/18 00:56:07;;;;;;;3.78;1.60;;;17.00;99.90;;;;;;5075807;28;20050;-77
2023/08/18 00:58:34;;;;;;;2.28;1.50;;;17.00;99.90;;;;;;5067655;28;20047;-77
2023/08/18 01:01:02;;;;;;;2.85;1.83;;;17.00;99.90;;;;;;5071885;28;20048;-77
2023/08/18 01:03:27;;;;;;;3.85;1.50;;;16.90;99.90;;;;;;5067029;28;20032;-77
2023/08/18 01:05:53;;;;;;;5.78;1.95;;;17.00;99.90;;;;;;5073984;28;20066;-77
2023/08/18 01:08:18;;;;;;;3.75;1.73;;;17.00;99.90;;;;;;5071002;28;20032;-76
2023/08/18 01:11:28;;;;;;;2.63;1.77;;;17.00;99.90;;;;;;5067162;28;20046;-77
2023/08/18 01:14:15;;;;;;;6.25;1.85;;;16.90;99.90;;;;;;5070776;28;20119;-77
2023/08/18 01:16:48;;;;;;;5.35;2.10;;;16.90;99.90;;;;;;5063491;28;20036;-77
2023/08/18 01:19:16;;;;;;;4.05;1.80;;;16.90;99.90;;;;;;5069316;28;20086;-76
2023/08/18 01:21:43;;;;;;;3.85;1.90;;;16.90;99.90;;;;;;5078962;28;20111;-77
2023/08/18 01:24:09;;;;;;;3.08;1.70;;;16.90;99.90;;;;;;5067923;28;20510;-76
2023/08/18 01:26:34;;;;;;;3.03;1.80;;;16.90;99.90;;;;;;5067769;28;20032;-77
2023/08/18 01:29:00;;;;;;;3.78;1.73;;;16.90;99.90;;;;;;5066058;28;20043;-78
2023/08/18 01:31:30;;;;;;;2.75;1.80;;;16.90;99.90;;;;;;5068115;28;20523;-78
2023/08/18 01:34:04;;;;;;;2.58;1.70;;;16.90;99.90;;;;;;5064351;28;20059;-76
2023/08/18 01:36:34;;;;;;;3.60;2.00;;;16.80;99.90;;;;;;5070079;28;20564;-76
2023/08/18 01:39:01;;;;;;;4.10;2.00;;;16.80;99.90;;;;;;5057537;28;20044;-77
2023/08/18 01:41:29;;;;;;;4.20;2.10;;;16.90;99.90;;;;;;5071911;28;20088;-77
2023/08/18 01:43:55;;;;;;;4.03;1.80;;;16.80;99.90;;;;;;5074593;28;20039;-77
2023/08/18 01:46:20;;;;;;;5.07;2.17;;;16.80;99.90;;;;;;5058658;28;20503;-77
2023/08/18 01:48:46;;;;;;;3.45;2.30;;;16.80;99.90;;;;;;5068007;28;20043;-77
2023/08/18 01:51:11;;;;;;;4.05;2.20;;;16.80;99.90;;;;;;5067170;28;20036;-77
2023/08/18 01:53:37;;;;;;;4.60;2.30;;;16.80;99.90;;;;;;5067725;28;20031;-77
2023/08/18 01:56:03;;;;;;;3.50;2.15;;;16.80;99.90;;;;;;5073471;28;20048;-77
2023/08/18 01:58:28;;;;;;;3.40;2.20;;;16.80;99.90;;;;;;5072549;28;20082;-77
2023/08/18 02:00:58;;;;;;;4.25;2.42;;;16.70;99.90;;;;;;5072615;28;20117;-77
2023/08/18 02:03:25;;;;;;;5.22;2.35;;;16.70;99.90;;;;;;5074461;28;20038;-76
2023/08/18 02:05:55;;;;;;;4.35;2.60;;;16.60;99.90;;;;;;5074093;28;20038;-77
2023/08/18 02:08:21;;;;;;;3.80;2.20;;;16.60;99.90;;;;;;5074292;28;20036;-77
2023/08/18 02:10:46;;;;;;;5.18;2.53;;;16.50;99.90;;;;;;5074025;28;20058;-76
2023/08/18 02:13:13;;;;;;;3.28;2.15;;;16.50;99.90;;;;;;5074185;28;20507;-76
2023/08/18 02:15:38;;;;;;;4.43;2.40;;;16.50;99.90;;;;;;5074170;28;20843;-76
2023/08/18 02:18:04;;;;;;;3.40;2.20;;;16.50;99.90;;;;;;5065901;28;20079;-77
2023/08/18 02:20:30;;;;;;;4.00;2.75;;;16.50;99.90;;;;;;5078374;28;20123;-76
2023/08/18 02:22:55;;;;;;;3.47;2.40;;;16.50;99.90;;;;;;5073173;28;20563;-77
2023/08/18 02:25:21;;;;;;;6.00;2.83;;;16.50;99.90;;;;;;5073613;28;20036;-76
2023/08/18 02:27:46;;;;;;;5.72;2.65;;;16.50;99.90;;;;;;5070535;28;20028;-77
2023/08/18 02:30:12;;;;;;;3.63;2.65;;;16.50;99.90;;;;;;5055868;28;20396;-77
2023/08/18 02:32:38;;;;;;;5.57;3.30;;;16.70;99.90;;;;;;5076215;28;20513;-76
2023/08/18 02:35:04;;;;;;;4.40;2.83;;;16.60;99.90;;;;;;5066952;28;20044;-77
2023/08/18 02:37:29;;;;;;;4.72;2.80;;;16.60;99.90;;;;;;5065204;28;20036;-77
2023/08/18 02:39:55;;;;;;;5.40;3.00;;;16.50;99.90;;;;;;5065158;28;20075;-77
2023/08/18 02:42:21;;;;;;;5.05;2.83;;;16.60;99.90;;;;;;5061775;28;20492;-77
2023/08/18 02:44:46;;;;;;;4.03;2.80;;;16.60;99.90;;;;;;5068792;28;20032;-77
2023/08/18 02:47:13;;;;;;;5.45;3.20;;;16.60;99.90;;;;;;5069834;28;20028;-77
2023/08/18 02:49:38;;;;;;;4.40;3.17;;;16.60;99.90;;;;;;5066506;28;20029;-77
2023/08/18 02:52:04;;;;;;;4.38;3.30;;;16.60;99.90;;;;;;5061426;28;20089;-77
2023/08/18 02:54:30;;;;;;;4.82;3.53;;;16.60;99.90;;;;;;5063283;28;20384;-77
2023/08/18 02:56:55;;;;;;;9.10;3.25;;;16.60;99.90;;;;;;5067151;28;20743;-77
2023/08/18 02:59:21;;;;;;;4.05;3.15;;;16.70;99.90;;;;;;5066895;28;20065;-77
2023/08/18 03:01:47;;;;;;;5.18;3.42;;;16.60;99.90;;;;;;5072884;28;20487;-76
2023/08/18 03:04:15;;;;;;;6.65;3.50;;;16.70;99.90;;;;;;5061898;28;20495;-77
2023/08/18 03:06:41;;;;;;;6.25;3.53;;;16.70;99.90;;;;;;5065418;28;20388;-77
2023/08/18 03:09:07;;;;;;;4.60;3.40;;;16.60;99.90;;;;;;5056462;28;20070;-76
2023/08/18 03:11:32;;;;;;;6.43;3.65;;;16.70;99.90;;;;;;5073798;28;20032;-77
2023/08/18 03:13:58;;;;;;;8.25;4.35;;;16.70;99.90;;;;;;5069210;28;20404;-77
2023/08/18 03:16:23;;;;;;;6.50;4.00;;;16.70;99.90;;;;;;5064198;28;20040;-77
2023/08/18 03:18:49;;;;;;;4.80;3.55;;;16.70;99.90;;;;;;5067767;28;20048;-78
2023/08/18 03:21:14;;;;;;;6.40;3.83;;;16.70;99.90;;;;;;5065377;28;20057;-77
2023/08/18 03:23:40;;;;;;;8.20;4.25;;;16.70;99.90;;;;;;5049306;28;20039;-77
2023/08/18 03:26:05;;;;;;;5.35;3.42;;;16.70;99.90;;;;;;5066278;28;20044;-78
2023/08/18 03:28:34;;;;;;;6.20;3.47;;;16.70;99.90;;;;;;5064197;28;20040;-77
2023/08/18 03:31:01;;;;;;;5.18;3.85;;;16.70;99.90;;;;;;5062706;28;20094;-77
2023/08/18 03:33:27;;;;;;;6.53;4.07;;;16.70;99.90;;;;;;5062267;28;20039;-77
2023/08/18 03:35:53;;;;;;;4.88;3.80;;;16.70;99.90;;;;;;5064650;28;20115;-78
2023/08/18 03:38:18;;;;;;;5.57;4.63;;;16.70;99.90;;;;;;5070030;28;20040;-77
2023/08/18 03:40:44;;;;;;;4.75;3.70;;;16.70;99.90;;;;;;5065422;28;20509;-77
2023/08/18 03:43:09;;;;;;;6.88;4.13;;;16.70;99.90;;;;;;5066036;28;20067;-77
2023/08/18 03:45:35;;;;;;;5.10;3.95;;;16.70;99.90;;;;;;5068343;28;20043;-76
2023/08/18 03:48:01;;;;;;;6.43;4.53;;;16.70;99.90;;;;;;5066445;28;20107;-76
2023/08/18 03:50:26;;;;;;;8.60;4.30;;;16.70;99.90;;;;;;5070465;28;20032;-77
2023/08/18 03:52:55;;;;;;;6.30;4.05;;;16.70;99.90;;;;;;5065859;28;20104;-77
2023/08/18 03:55:23;;;;;;;7.40;4.53;;;16.80;99.90;;;;;;5082306;28;20047;-77
2023/08/18 03:57:49;;;;;;;9.18;4.22;;;16.80;99.90;;;;;;5072569;28;20036;-78
2023/08/18 04:00:15;;;;;;;8.13;4.63;;;16.70;99.90;;;;;;5068116;28;20052;-77
2023/08/18 04:02:41;;;;;;;7.03;4.40;;;16.70;99.90;;;;;;5072881;28;20406;-77
2023/08/18 04:05:06;;;;;;;7.97;4.13;;;16.70;99.90;;;;;;5071539;28;20044;-77
2023/08/18 04:07:32;;;;;;;7.22;4.55;;;16.70;99.90;;;;;;5073257;28;20025;-78
2023/08/18 04:09:57;;;;;;;6.45;4.05;;;16.70;99.90;;;;;;5072580;28;20415;-76
2023/08/18 04:12:23;;;;;;;6.25;4.50;;;16.70;99.90;;;;;;5072589;28;20025;-76
2023/08/18 04:14:49;;;;;;;6.53;4.88;;;16.70;99.90;;;;;;5072727;28;20052;-77
2023/08/18 04:17:14;;;;;;;7.97;4.85;;;16.70;99.90;;;;;;5072760;28;20036;-76
2023/08/18 04:19:40;;;;;;;5.80;4.40;;;16.70;99.90;;;;;;5072634;28;20032;-78
2023/08/18 04:22:05;;;;;;;7.68;4.60;;;16.70;99.90;;;;;;5072937;28;20060;-76
2023/08/18 04:24:31;;;;;;;9.32;4.70;;;16.70;99.90;;;;;;5072761;28;20036;-76
2023/08/18 04:26:59;;;;;;;8.70;4.63;;;16.70;99.90;;;;;;5071869;28;20040;-77
2023/08/18 04:29:26;;;;;;;6.35;4.70;;;16.70;99.90;;;;;;5072461;28;20491;-77
2023/08/18 04:31:52;;;;;;;6.53;5.07;;;16.80;99.90;;;;;;5055822;28;20101;-77
2023/08/18 04:34:17;;;;;;;6.78;4.45;;;16.80;99.90;;;;;;5072091;28;20511;-76
2023/08/18 04:36:43;;;;;;;7.28;4.70;;;16.80;99.90;;;;;;5072838;28;20036;-77
2023/08/18 04:39:10;;;;;;;6.40;4.32;;;16.80;99.90;;;;;;5072539;28;20182;-77
2023/08/18 04:41:36;;;;;;;8.43;4.93;;;16.80;99.90;;;;;;5073227;28;20119;-77
2023/08/18 04:44:03;;;;;;;8.25;4.65;;;16.80;99.90;;;;;;5073042;28;20048;-77
2023/08/18 04:46:28;;;;;;;8.15;5.00;;;16.80;99.90;;;;;;5075477;28;20162;-76
2023/08/18 04:48:54;;;;;;;6.55;4.72;;;16.80;99.90;;;;;;5076157;28;20093;-77
2023/08/18 04:51:20;;;;;;;6.82;4.28;;;16.80;99.90;;;;;;5058188;28;20032;-77
2023/08/18 04:53:45;;;;;;;6.03;4.63;;;16.80;99.90;;;;;;5074797;28;20032;-77
2023/08/18 04:56:11;;;;;;;6.70;4.65;;;16.80;99.90;;;;;;5075293;28;20495;-78
2023/08/18 04:58:37;;;;;;;7.00;4.40;;;16.80;99.90;;;;;;5068206;28;20601;-77
2023/08/18 05:01:04;;;;;;;7.05;4.53;;;16.80;99.90;;;;;;5076222;28;20469;-77
2023/08/18 05:03:29;;;;;;;6.90;4.43;;;16.80;99.90;;;;;;5073509;28;20036;-78
2023/08/18 05:06:08;;;;;;;7.30;4.65;;;16.90;99.90;;;;;;5074709;28;20785;-78
2023/08/18 05:08:36;;;;;;;9.35;4.35;;;16.90;99.90;;;;;;5058973;28;20032;-77
2023/08/18 05:11:06;;;;;;;6.85;4.53;;;16.90;99.90;;;;;;5074228;28;20040;-78
2023/08/18 05:13:32;;;;;;;8.23;4.68;;;16.90;99.90;;;;;;5058087;28;20035;-77
2023/08/18 05:16:00;;;;;;;7.18;4.93;;;16.90;99.90;;;;;;5075296;28;20036;-77
2023/08/18 05:18:26;;;;;;;8.45;4.80;;;16.90;99.90;;;;;;5075361;28;20032;-77
2023/08/18 05:20:51;;;;;;;8.63;4.88;;;16.90;99.90;;;;;;5075255;28;20068;-78
2023/08/18 05:23:17;;;;;;;9.45;4.60;;;16.90;99.90;;;;;;5077761;28;20075;-77
2023/08/18 05:25:45;;;;;;;8.45;4.75;;;16.90;99.90;;;;;;5058032;28;20042;-79
2023/08/18 05:28:11;;;;;;;7.63;4.75;;;16.90;99.90;;;;;;5084842;28;20425;-78
2023/08/18 05:30:37;;;;;;;9.45;4.80;;;16.90;99.90;;;;;;5074142;28;20025;-77
2023/08/18 05:33:03;;;;;;;8.88;4.55;;;16.90;99.90;;;;;;5076959;28;20544;-78
2023/08/18 05:35:28;;;;;;;6.50;4.70;;;17.00;99.90;;;;;;5073422;28;20050;-78
2023/08/18 05:37:55;;;;;;;8.73;5.13;;;16.90;99.90;;;;;;5072929;28;20431;-78
2023/08/18 05:40:20;;;;;;;9.68;5.13;;;17.00;99.90;;;;;;5089765;28;20044;-77
2023/08/18 05:42:46;;;;;;;7.95;5.50;;;16.90;99.90;;;;;;5072713;28;20052;-76
2023/08/18 05:45:11;;;;;;;8.57;5.30;;;17.00;99.90;;;;;;5073711;28;20036;-78
2023/08/18 05:47:37;;;;;;;10.65;5.75;;;17.00;99.90;;;;;;5081485;28;20391;-78
2023/08/18 05:50:03;;;;;;;6.68;4.88;;;17.00;99.90;;;;;;5093818;28;20456;-77
2023/08/18 05:52:28;;;;;;;8.20;5.63;;;17.00;99.90;;;;;;5075390;28;20417;-78
2023/08/18 05:54:54;;;;;;;11.18;6.05;;;17.00;99.90;;;;;;5076266;28;20040;-78
2023/08/18 05:57:20;;;;;;;13.07;6.20;;;17.10;99.90;;;;;;5074146;28;20036;-78
2023/08/18 05:59:45;;;;;;;11.60;5.80;;;17.10;99.90;;;;;;5074072;28;20044;-79
2023/08/18 06:02:11;;;;;;;7.38;5.45;;;17.10;99.90;;;;;;5074726;28;20068;-77
2023/08/18 06:04:36;;;;;;;8.77;5.75;;;17.10;99.90;;;;;;5074719;28;20043;-78
2023/08/18 06:07:02;;;;;;;7.20;5.03;;;17.20;99.90;;;;;;5056940;28;20040;-77
2023/08/18 06:09:28;;;;;;;8.98;5.55;;;17.10;99.90;;;;;;5068450;28;20495;-78
2023/08/18 06:11:53;;;;;;;9.35;5.55;;;17.20;99.90;;;;;;5070774;28;20043;-77
2023/08/18 06:14:19;;;;;;;10.65;5.22;;;17.20;99.90;;;;;;5062926;28;20510;-78
2023/08/18 06:16:44;;;;;;;7.03;5.15;;;17.30;99.90;;;;;;5067593;28;20107;-78
2023/08/18 06:19:10;;;;;;;6.22;4.72;;;17.30;99.90;;;;;;5064483;28;20036;-78
2023/08/18 06:21:35;;;;;;;7.75;4.60;;;17.40;99.90;;;;;;5068271;28;20113;-78
2023/08/18 06:24:01;;;;;;;8.05;4.50;;;17.40;99.90;;;;;;5063976;28;20051;-77
2023/08/18 06:26:27;;;;;;;9.40;4.60;;;17.40;99.90;;;;;;5055630;28;20058;-78
2023/08/18 06:28:52;;;;;;;7.00;4.38;;;17.40;99.90;;;;;;5066272;28;20486;-78
2023/08/18 06:31:18;;;;;;;11.10;5.22;;;17.50;99.90;;;;;;5059551;28;20029;-78
2023/08/18 06:33:43;;;;;;;8.85;5.03;;;17.50;99.90;;;;;;5066001;28;20461;-78
2023/08/18 06:36:09;;;;;;;5.97;4.13;;;17.50;99.90;;;;;;5073855;28;20039;-78
2023/08/18 06:38:34;;;;;;;8.05;4.55;;;17.50;99.90;;;;;;5074073;28;20039;-78
2023/08/18 06:41:00;;;;;;;7.70;4.13;;;17.60;99.90;;;;;;5058164;28;20047;-78
2023/08/18 06:43:25;;;;;;;8.63;4.50;;;17.60;99.90;;;;;;5068787;28;20097;-78
2023/08/18 06:45:51;;;;;;;7.78;4.70;;;17.70;99.90;;;;;;5064959;28;20113;-79
2023/08/18 06:48:16;;;;;;;8.05;4.53;;;17.70;99.90;;;;;;5073344;28;20028;-78
2023/08/18 06:50:42;;;;;;;6.65;4.63;;;17.70;99.90;;;;;;5074625;28;20039;-78
2023/08/18 06:53:08;;;;;;;8.95;4.72;;;17.70;99.90;;;;;;5074142;28;20391;-76
2023/08/18 06:55:33;;;;;;;7.47;4.60;;;17.70;99.90;;;;;;5057320;28;20040;-78
2023/08/18 06:57:59;;;;;;;7.40;4.10;;;17.70;99.90;;;;;;5064994;28;20504;-78
2023/08/18 07:00:24;;;;;;;8.15;5.10;;;17.80;99.90;;;;;;5069923;28;20120;-78
2023/08/18 07:02:50;;;;;;;9.48;4.47;;;17.80;99.90;;;;;;5071948;28;20043;-77
2023/08/18 07:05:17;;;;;;;11.85;4.70;;;17.80;99.90;;;;;;5070935;28;20072;-76
2023/08/18 07:07:43;;;;;;;12.57;5.20;;;17.80;99.90;;;;;;5062380;28;20047;-77
2023/08/18 07:10:09;;;;;;;11.23;4.82;;;17.80;99.90;;;;;;5065918;28;20036;-77
2023/08/18 07:12:34;;;;;;;9.55;4.72;;;17.90;99.90;;;;;;5059613;28;20553;-78
2023/08/18 07:15:00;;;;;;;7.97;4.93;;;17.90;99.90;;;;;;5053669;28;20048;-78
2023/08/18 07:17:26;;;;;;;10.40;4.63;;;17.90;99.90;;;;;;5045816;28;20036;-77
2023/08/18 07:19:51;;;;;;;9.00;5.00;;;17.90;99.90;;;;;;5072185;28;20051;-77
2023/08/18 07:22:17;;;;;;;7.82;5.20;;;17.90;99.90;;;;;;5071180;28;20560;-77
2023/08/18 07:24:42;;;;;;;9.45;5.00;;;18.00;99.90;;;;;;5073953;28;20039;-77
2023/08/18 07:27:08;;;;;;;8.88;5.32;;;18.00;99.90;;;;;;5070792;28;20072;-78
2023/08/18 07:29:34;;;;;;;12.73;5.65;;;18.00;99.90;;;;;;5071356;28;20715;-79
2023/08/18 07:32:00;;;;;;;10.15;5.85;;;18.00;99.90;;;;;;5070610;28;20047;-78
2023/08/18 07:34:26;;;;;;;10.15;5.32;;;18.10;99.90;;;;;;5071597;28;20043;-78
2023/08/18 07:36:51;;;;;;;8.93;5.18;;;18.10;99.90;;;;;;5071381;28;20493;-76
2023/08/18 07:39:18;;;;;;;8.65;5.20;;;18.20;99.90;;;;;;5071395;28;20027;-76
2023/08/18 07:41:44;;;;;;;7.00;4.53;;;18.30;99.90;;;;;;5071954;28;20069;-79
2023/08/18 07:44:10;;;;;;;9.77;4.57;;;18.30;99.90;;;;;;5062996;28;20032;-78
2023/08/18 07:46:35;;;;;;;8.23;5.07;;;18.30;99.90;;;;;;5071215;28;20036;-78
2023/08/18 07:49:01;;;;;;;9.00;5.30;;;18.40;99.90;;;;;;5054015;28;20064;-77
2023/08/18 07:51:27;;;;;;;10.68;5.32;;;18.40;99.90;;;;;;5069621;28;20040;-77
2023/08/18 07:53:53;;;;;;;8.85;5.32;;;18.40;99.90;;;;;;5071349;28;20063;-79
2023/08/18 07:56:19;;;;;;;9.85;5.40;;;18.40;99.90;;;;;;5054784;28;20067;-78
2023/08/18 07:58:44;;;;;;;7.25;5.38;;;18.40;99.90;;;;;;5073236;28;20040;-78
2023/08/18 08:01:10;;;;;;;11.75;5.53;;;18.30;99.90;;;;;;5073189;28;20534;-78
2023/08/18 08:03:35;;;;;;;9.98;5.65;;;18.30;99.90;;;;;;5072588;28;20040;-79
2023/08/18 08:06:04;;;;;;;9.32;5.43;;;18.40;99.90;;;;;;5069740;28;20051;-78
2023/08/18 08:08:30;;;;;;;9.10;5.20;;;18.30;99.90;;;;;;5069505;28;20051;-78
2023/08/18 08:10:56;;;;;;;12.38;5.40;;;18.40;99.90;;;;;;5075018;28;20057;-78
2023/08/18 08:13:21;;;;;;;10.57;5.20;;;18.40;99.90;;;;;;5054766;28;20076;-77
2023/08/18 08:15:47;;;;;;;9.55;5.05;;;18.40;99.90;;;;;;5072487;28;20120;-77
2023/08/18 08:18:15;;;;;;;13.30;5.45;;;18.50;99.90;;;;;;5070666;28;20036;-79
2023/08/18 08:20:41;;;;;;;10.38;6.00;;;18.60;99.90;;;;;;5079068;28;20036;-78
2023/08/18 08:23:07;;;;;;;12.65;6.10;;;18.70;99.90;;;;;;5058860;28;20575;-77
2023/08/18 08:25:40;;;;;;;13.75;6.35;;;18.80;99.90;;;;;;5074859;28;20040;-76
2023/08/18 08:28:05;;;;;;;11.88;6.10;;;18.80;99.90;;;;;;5072981;28;20040;-78
2023/08/18 08:30:31;;;;;;;13.98;6.35;;;18.90;99.90;;;;;;5078673;28;20158;-78
2023/08/18 08:32:57;;;;;;;13.63;6.55;;;19.00;99.90;;;;;;5074180;28;20406;-79
2023/08/18 08:35:23;;;;;;;11.52;6.65;;;19.10;99.90;;;;;;5071542;28;20485;-78
2023/08/18 08:37:48;;;;;;;12.55;6.07;;;19.10;99.90;;;;;;5073929;28;20050;-78
2023/08/18 08:40:19;;;;;;;14.40;6.47;;;19.20;99.90;;;;;;5075731;28;20032;-76
2023/08/18 08:42:46;;;;;;;12.20;6.30;;;19.20;99.90;;;;;;5074258;28;20039;-78
2023/08/18 08:45:11;;;;;;;12.05;5.97;;;19.30;99.90;;;;;;5074525;28;20456;-78
2023/08/18 08:47:43;;;;;;;17.60;6.85;;;19.30;99.90;;;;;;5077891;28;20032;-77
2023/08/18 08:50:11;;;;;;;15.98;7.13;;;19.30;99.90;;;;;;5074915;28;20119;-77
2023/08/18 08:52:39;;;;;;;16.08;7.45;;;19.40;99.90;;;;;;5058985;28;20039;-76
2023/08/18 08:55:07;;;;;;;17.88;6.95;;;19.40;99.90;;;;;;5074190;28;20043;-78
2023/08/18 08:57:33;;;;;;;18.42;6.47;;;19.50;99.90;;;;;;5075131;28;20036;-78
2023/08/18 08:59:59;;;;;;;16.60;7.55;;;19.60;99.90;;;;;;5074686;28;20537;-77
2023/08/18 09:02:25;;;;;;;21.15;7.10;;;19.60;99.90;;;;;;5076940;28;20119;-77
2023/08/18 09:04:51;;;;;;;18.40;6.72;;;19.70;99.90;;;;;;5078152;28;20163;-78
2023/08/18 09:07:17;;;;;;;19.75;6.85;;;19.80;99.90;;;;;;5057411;28;20039;-78
2023/08/18 09:09:43;;;;;;;16.77;6.85;;;19.90;99.90;;;;;;5075812;28;20519;-78
2023/08/18 09:12:10;;;;;;;14.70;6.53;;;19.90;99.90;;;;;;5075190;28;20437;-78
2023/08/18 09:14:38;;;;;;;19.27;6.20;;;20.10;99.90;;;;;;5074864;28;20040;-79
2023/08/18 09:17:04;;;;;;;16.30;5.82;;;20.10;99.90;;;;;;5075279;28;20040;-78
2023/08/18 09:19:30;;;;;;;17.70;7.18;;;20.10;99.90;;;;;;5073263;28;20036;-77
2023/08/18 09:21:58;;;;;;;16.05;6.70;;;20.00;99.90;;;;;;5081307;28;20529;-78
2023/08/18 09:24:23;;;;;;;17.67;6.78;;;20.00;99.90;;;;;;5075839;28;20040;-79
2023/08/18 09:26:49;;;;;;;13.85;6.50;;;19.90;99.90;;;;;;5077519;28;20380;-78
2023/08/18 09:29:15;;;;;;;13.77;6.25;;;20.00;99.90;;;;;;5076486;28;20542;-79
2023/08/18 09:31:40;;;;;;;14.95;6.07;;;20.00;99.90;;;;;;5074202;28;20035;-78
2023/08/18 09:34:06;;;;;;;13.35;6.28;;;20.10;99.90;;;;;;5078861;28;20032;-79
2023/08/18 09:36:31;;;;;;;13.15;6.18;;;20.20;99.90;;;;;;5074390;28;20119;-79
2023/08/18 09:39:02;;;;;;;15.20;6.00;;;20.30;99.90;;;;;;5075134;28;20093;-79
2023/08/18 09:41:27;;;;;;;12.15;5.75;;;20.40;99.90;;;;;;5074338;28;20047;-80
2023/08/18 09:43:53;;;;;;;10.38;5.60;;;20.50;99.90;;;;;;5080708;28;20048;-80
2023/08/18 09:46:21;;;;;;;13.20;6.10;;;20.60;99.90;;;;;;5074348;28;20036;-78
2023/08/18 09:48:49;;;;;;;8.45;5.40;;;20.60;99.90;;;;;;5074914;28;20044;-78
2023/08/18 09:51:19;;;;;;;14.50;6.15;;;20.70;99.90;;;;;;5074401;28;20093;-77
2023/08/18 09:53:52;;;;;;;10.07;5.68;;;20.70;99.90;;;;;;5058361;28;20032;-79
2023/08/18 09:56:27;;;;;;;9.48;6.03;;;20.70;99.90;;;;;;5066969;28;20036;-79
2023/08/18 09:59:05;;;;;;;9.95;5.40;;;20.70;99.90;;;;;;5074598;28;20032;-77
2023/08/18 10:01:35;;;;;;;8.27;5.28;;;20.80;99.90;;;;;;5058177;28;20047;-78
2023/08/18 10:04:01;;;;;;;9.23;5.25;;;20.80;99.90;;;;;;5057974;28;20036;-78
2023/08/18 10:06:28;;;;;;;8.82;5.38;;;20.90;99.90;;;;;;5074109;28;20043;-78
2023/08/18 10:08:56;;;;;;;9.07;5.20;;;20.90;99.90;;;;;;5074328;28;20032;-78
2023/08/18 10:11:22;;;;;;;7.53;5.32;;;21.00;99.90;;;;;;5074684;28;20028;-77
2023/08/18 10:13:50;;;;;;;8.73;5.85;;;21.10;99.90;;;;;;5074193;28;20043;-79
2023/08/18 10:16:16;;;;;;;10.00;5.95;;;21.10;99.90;;;;;;5057263;28;20043;-78
2023/08/18 10:18:42;;;;;;;10.57;6.15;;;21.20;99.90;;;;;;5072312;28;20047;-79
2023/08/18 10:21:10;;;;;;;8.52;5.40;;;21.20;99.90;;;;;;5073337;28;20443;-78
2023/08/18 10:23:39;;;;;;;7.55;5.40;;;21.30;99.90;;;;;;5073755;28;20118;-79
2023/08/18 10:26:05;;;;;;;7.63;6.15;;;21.30;99.90;;;;;;5073835;28;20070;-79
2023/08/18 10:28:32;;;;;;;7.30;6.25;;;21.50;99.90;;;;;;5073764;28;20104;-79
2023/08/18 10:31:03;;;;;;;9.60;5.80;;;21.70;99.90;;;;;;5073610;28;20051;-79
2023/08/18 10:33:49;;;;;;;9.73;6.22;;;21.90;99.90;;;;;;5074018;28;20040;-77
2023/08/18 10:36:25;;;;;;;9.55;6.30;;;22.00;99.90;;;;;;5073478;28;20036;-78
2023/08/18 10:38:54;;;;;;;7.13;5.97;;;22.10;99.90;;;;;;5073817;28;20499;-77
2023/08/18 10:41:28;;;;;;;11.52;6.75;;;22.10;99.90;;;;;;5073496;28;20476;-78
2023/08/18 10:43:58;;;;;;;;;;;22.00;99.90;;;;;;5071288;28;20120;-79
2023/08/18 10:46:36;;;;;;;9.13;6.07;;;22.00;99.90;;;;;;5071897;28;19966;-79
2023/08/18 10:49:03;;;;;;;9.07;5.68;;;21.90;99.90;;;;;;5055448;28;20093;-79
2023/08/18 10:51:29;;;;;;;8.48;6.32;;;21.80;99.90;;;;;;5071851;28;20043;-78
2023/08/18 10:53:54;;;;;;;8.32;6.45;;;21.80;99.90;;;;;;5072085;28;20093;-78
2023/08/18 10:56:20;;;;;;;13.48;6.63;;;21.80;99.90;;;;;;5071739;28;20036;-78
2023/08/18 10:58:46;;;;;;;8.73;7.20;;;21.80;99.90;;;;;;5072313;28;20043;-77
2023/08/18 11:01:11;;;;;;;8.70;6.88;;;21.80;99.90;;;;;;5073318;28;20127;-77
2023/08/18 11:03:41;;;;;;;9.07;7.00;;;21.80;99.90;;;;;;5073737;28;20032;-78
2023/08/18 11:06:06;;;;;;;9.80;6.30;;;21.80;99.90;;;;;;5073346;28;20046;-78
2023/08/18 11:08:32;;;;;;;8.98;6.90;;;21.80;99.90;;;;;;5073760;28;20427;-79
2023/08/18 11:10:58;;;;;;;8.95;7.15;;;21.80;99.90;;;;;;5075814;28;20035;-78
2023/08/18 11:13:26;;;;;;;9.40;7.90;;;21.80;99.90;;;;;;5056347;28;20111;-78
2023/08/18 11:15:53;;;;;;;11.27;7.32;;;21.90;99.90;;;;;;5071195;28;20518;-79
2023/08/18 11:18:20;;;;;;;10.25;7.43;;;22.00;99.90;;;;;;5102949;28;20119;-78
2023/08/18 11:20:47;;;;;;;11.05;7.32;;;22.00;99.90;;;;;;5075369;28;20093;-78
2023/08/18 11:23:12;;;;;;;10.35;7.22;;;22.10;99.90;;;;;;5055285;28;20093;-79
2023/08/18 11:25:39;;;;;;;10.70;7.47;;;22.30;99.90;;;;;;5058371;28;20036;-78
2023/08/18 11:28:05;;;;;;;9.23;6.95;;;22.50;99.90;;;;;;5071084;28;20039;-79
2023/08/18 11:30:31;;;;;;;8.85;6.78;;;22.70;99.90;;;;;;5070973;28;20032;-79
2023/08/18 11:32:57;;;;;;;9.18;6.82;;;23.10;99.90;;;;;;5072395;28;20534;-80
2023/08/18 11:35:24;;;;;;;14.63;7.28;;;23.20;99.90;;;;;;5071189;28;20047;-80
2023/08/18 11:37:51;;;;;;;10.23;6.75;;;23.40;99.90;;;;;;5074337;28;20043;-79
2023/08/18 11:40:18;;;;;;;11.75;7.13;;;23.50;99.90;;;;;;5071384;28;20031;-79
2023/08/18 11:42:49;;;;;;;10.00;6.70;;;23.80;99.90;;;;;;5071056;28;20070;-79
2023/08/18 11:45:19;;;;;;;9.43;6.85;;;24.00;99.90;;;;;;5072355;28;20036;-78
2023/08/18 11:47:46;;;;;;;10.70;6.90;;;24.20;99.90;;;;;;5074875;28;20730;-80
2023/08/18 11:50:19;;;;;;;8.57;7.00;;;24.30;99.90;;;;;;5070305;28;20629;-80
2023/08/18 11:52:46;;;;;;;7.28;6.32;;;24.60;99.90;;;;;;5070369;28;20675;-77
2023/08/18 11:55:12;;;;;;;8.20;6.00;;;24.80;99.90;;;;;;5080276;28;20379;-81
2023/08/18 11:57:44;;;;;;;10.02;6.78;;;24.90;99.90;;;;;;5075190;28;20110;-79
2023/08/18 12:00:16;;;;;;;7.95;6.10;;;24.80;99.90;;;;;;5078302;28;20040;-80
2023/08/18 12:02:46;;;;;;;7.53;5.75;;;24.80;99.90;;;;;;5079601;28;20039;-78
2023/08/18 12:05:22;;;;;;;6.97;5.75;;;24.70;99.90;;;;;;5074047;28;20491;-80
2023/08/18 12:07:52;;;;;;;7.35;6.05;;;24.50;99.90;;;;;;5072092;28;20040;-80
2023/08/18 12:10:19;;;;;;;10.38;6.03;;;24.50;99.90;;;;;;5075832;28;20028;-78
2023/08/18 12:12:52;;;;;;;8.73;6.40;;;24.50;99.90;;;;;;5076638;28;20040;-77
2023/08/18 12:15:17;;;;;;;10.38;6.30;;;24.60;99.90;;;;;;5076357;28;20032;-78
2023/08/18 12:17:43;;;;;;;8.52;6.40;;;24.60;99.90;;;;;;5077226;28;20039;-78
2023/08/18 12:20:09;;;;;;;8.27;6.20;;;24.60;99.90;;;;;;5076204;28;20100;-79
2023/08/18 12:22:34;;;;;;;8.30;6.03;;;24.60;99.90;;;;;;5076268;28;20051;-79
2023/08/18 12:25:00;;;;;;;8.38;6.80;;;24.60;99.90;;;;;;5076351;28;20040;-80
2023/08/18 12:27:29;;;;;;;7.60;6.50;;;24.50;99.90;;;;;;5077485;28;20130;-79
2023/08/18 12:29:55;;;;;;;10.82;6.78;;;24.80;99.90;;;;;;5076110;28;20131;-78
2023/08/18 12:32:20;;;;;;;7.95;5.82;;;25.20;99.90;;;;;;5075819;28;20036;-80
2023/08/18 12:34:50;;;;;;;8.48;5.22;;;25.50;99.90;;;;;;5076283;28;20036;-79
2023/08/18 12:37:18;;;;;;;9.32;5.93;;;25.70;99.90;;;;;;5075746;28;20127;-79
2023/08/18 12:39:43;;;;;;;7.18;5.53;;;26.10;99.90;;;;;;5059572;28;20035;-79
2023/08/18 12:42:09;;;;;;;11.45;6.65;;;26.50;99.90;;;;;;5076138;28;20032;-79